sensor_id;sensor_type;location;lat;lon;timestamp;P1;durP1;ratioP1;P2;durP2;ratioP2
79691;SDS011;69158;55.592;37.610;2023-04-15T00:02:21;5.90;;;1.10;;
79691;SDS011;69158;55.592;37.610;2023-04-15T00:05:08;4.00;;;1.00;;
79691;SDS011;69158;55.592;37.610;2023-04-15T00:07:56;7.28;;;1.25;;
79691;SDS011;69158;55.592;37.610;2023-04-15T00:10:43;5.53;;;1.20;;
79691;SDS011;69158;55.592;37.610;2023-04-15T00:13:38;4.78;;;1.40;;
79691;SDS011;69158;55.592;37.610;2023-04-15T00:16:24;6.97;;;1.50;;
79691;SDS011;69158;55.592;37.610;2023-04-15T00:19:12;5.47;;;1.27;;
79691;SDS011;69158;55.592;37.610;2023-04-15T00:22:00;5.20;;;1.23;;
79691;SDS011;69158;55.592;37.610;2023-04-15T00:25:05;4.32;;;1.20;;
79691;SDS011;69158;55.592;37.610;2023-04-15T00:27:53;4.68;;;1.13;;
79691;SDS011;69158;55.592;37.610;2023-04-15T00:30:44;4.65;;;1.23;;
79691;SDS011;69158;55.592;37.610;2023-04-15T00:33:30;4.97;;;1.27;;
79691;SDS011;69158;55.592;37.610;2023-04-15T00:36:21;4.63;;;1.42;;
79691;SDS011;69158;55.592;37.610;2023-04-15T00:39:07;5.43;;;1.20;;
79691;SDS011;69158;55.592;37.610;2023-04-15T00:41:55;6.88;;;1.33;;
79691;SDS011;69158;55.592;37.610;2023-04-15T00:44:43;5.68;;;1.40;;
79691;SDS011;69158;55.592;37.610;2023-04-15T00:47:29;6.85;;;1.33;;
79691;SDS011;69158;55.592;37.610;2023-04-15T00:50:18;4.55;;;1.00;;
79691;SDS011;69158;55.592;37.610;2023-04-15T00:53:04;4.60;;;1.20;;
79691;SDS011;69158;55.592;37.610;2023-04-15T00:55:51;4.68;;;1.08;;
79691;SDS011;69158;55.592;37.610;2023-04-15T00:58:41;8.48;;;1.30;;
79691;SDS011;69158;55.592;37.610;2023-04-15T01:01:28;6.55;;;1.15;;
79691;SDS011;69158;55.592;37.610;2023-04-15T01:04:15;5.15;;;1.27;;
79691;SDS011;69158;55.592;37.610;2023-04-15T01:07:03;4.95;;;2.10;;
79691;SDS011;69158;55.592;37.610;2023-04-15T01:09:51;5.72;;;1.10;;
79691;SDS011;69158;55.592;37.610;2023-04-15T01:12:38;5.05;;;1.20;;
79691;SDS011;69158;55.592;37.610;2023-04-15T01:15:24;5.72;;;1.20;;
79691;SDS011;69158;55.592;37.610;2023-04-15T01:18:13;7.50;;;1.33;;
79691;SDS011;69158;55.592;37.610;2023-04-15T01:21:03;5.93;;;1.67;;
79691;SDS011;69158;55.592;37.610;2023-04-15T01:23:52;5.35;;;1.35;;
79691;SDS011;69158;55.592;37.610;2023-04-15T01:26:42;5.55;;;1.10;;
79691;SDS011;69158;55.592;37.610;2023-04-15T01:29:36;6.18;;;1.15;;
79691;SDS011;69158;55.592;37.610;2023-04-15T01:32:23;6.05;;;1.20;;
79691;SDS011;69158;55.592;37.610;2023-04-15T01:35:09;4.95;;;1.20;;
79691;SDS011;69158;55.592;37.610;2023-04-15T01:37:56;4.38;;;1.10;;
79691;SDS011;69158;55.592;37.610;2023-04-15T01:40:48;6.25;;;1.20;;
79691;SDS011;69158;55.592;37.610;2023-04-15T01:43:35;7.80;;;1.33;;
79691;SDS011;69158;55.592;37.610;2023-04-15T01:46:25;5.05;;;1.45;;
79691;SDS011;69158;55.592;37.610;2023-04-15T01:49:11;5.32;;;1.60;;
79691;SDS011;69158;55.592;37.610;2023-04-15T01:51:57;5.40;;;1.15;;
79691;SDS011;69158;55.592;37.610;2023-04-15T01:54:46;5.25;;;1.20;;
79691;SDS011;69158;55.592;37.610;2023-04-15T01:57:33;7.72;;;1.40;;
79691;SDS011;69158;55.592;37.610;2023-04-15T02:00:19;7.07;;;1.27;;
79691;SDS011;69158;55.592;37.610;2023-04-15T02:03:07;6.47;;;1.65;;
79691;SDS011;69158;55.592;37.610;2023-04-15T02:05:54;4.63;;;1.30;;
79691;SDS011;69158;55.592;37.610;2023-04-15T02:08:44;5.95;;;1.30;;
79691;SDS011;69158;55.592;37.610;2023-04-15T02:11:30;7.38;;;1.52;;
79691;SDS011;69158;55.592;37.610;2023-04-15T02:14:18;6.18;;;1.52;;
79691;SDS011;69158;55.592;37.610;2023-04-15T02:17:05;5.90;;;1.25;;
79691;SDS011;69158;55.592;37.610;2023-04-15T02:19:54;5.28;;;1.60;;
79691;SDS011;69158;55.592;37.610;2023-04-15T02:22:42;4.72;;;1.20;;
79691;SDS011;69158;55.592;37.610;2023-04-15T02:25:28;4.40;;;1.27;;
79691;SDS011;69158;55.592;37.610;2023-04-15T02:28:15;5.38;;;1.42;;
79691;SDS011;69158;55.592;37.610;2023-04-15T02:31:04;4.85;;;1.30;;
79691;SDS011;69158;55.592;37.610;2023-04-15T02:33:51;4.65;;;1.38;;
79691;SDS011;69158;55.592;37.610;2023-04-15T02:36:38;5.95;;;1.10;;
79691;SDS011;69158;55.592;37.610;2023-04-15T02:39:26;7.13;;;1.52;;
79691;SDS011;69158;55.592;37.610;2023-04-15T02:42:13;7.38;;;1.40;;
79691;SDS011;69158;55.592;37.610;2023-04-15T02:44:58;5.72;;;1.38;;
79691;SDS011;69158;55.592;37.610;2023-04-15T02:47:45;4.60;;;1.30;;
79691;SDS011;69158;55.592;37.610;2023-04-15T02:50:31;4.40;;;1.13;;
79691;SDS011;69158;55.592;37.610;2023-04-15T02:53:17;7.07;;;1.50;;
79691;SDS011;69158;55.592;37.610;2023-04-15T02:56:04;12.93;;;1.42;;
79691;SDS011;69158;55.592;37.610;2023-04-15T02:58:51;4.55;;;1.20;;
79691;SDS011;69158;55.592;37.610;2023-04-15T03:01:40;6.53;;;1.23;;
79691;SDS011;69158;55.592;37.610;2023-04-15T03:04:26;4.35;;;1.00;;
79691;SDS011;69158;55.592;37.610;2023-04-15T03:07:14;7.18;;;1.50;;
79691;SDS011;69158;55.592;37.610;2023-04-15T03:10:01;4.85;;;1.40;;
79691;SDS011;69158;55.592;37.610;2023-04-15T03:12:48;4.88;;;1.20;;
79691;SDS011;69158;55.592;37.610;2023-04-15T03:15:36;5.57;;;1.52;;
79691;SDS011;69158;55.592;37.610;2023-04-15T03:18:23;6.00;;;1.58;;
79691;SDS011;69158;55.592;37.610;2023-04-15T03:21:09;5.30;;;1.35;;
79691;SDS011;69158;55.592;37.610;2023-04-15T03:23:56;5.60;;;1.50;;
79691;SDS011;69158;55.592;37.610;2023-04-15T03:26:42;6.80;;;1.65;;
79691;SDS011;69158;55.592;37.610;2023-04-15T03:29:28;5.30;;;1.30;;
79691;SDS011;69158;55.592;37.610;2023-04-15T03:32:14;6.30;;;1.48;;
79691;SDS011;69158;55.592;37.610;2023-04-15T03:35:00;7.90;;;1.45;;
79691;SDS011;69158;55.592;37.610;2023-04-15T03:37:46;6.82;;;1.40;;
79691;SDS011;69158;55.592;37.610;2023-04-15T03:40:33;8.45;;;1.83;;
79691;SDS011;69158;55.592;37.610;2023-04-15T03:43:19;6.00;;;2.08;;
79691;SDS011;69158;55.592;37.610;2023-04-15T03:46:05;6.22;;;1.67;;
79691;SDS011;69158;55.592;37.610;2023-04-15T03:48:51;6.45;;;1.80;;
79691;SDS011;69158;55.592;37.610;2023-04-15T03:51:37;6.20;;;2.40;;
79691;SDS011;69158;55.592;37.610;2023-04-15T03:54:25;6.40;;;1.80;;
79691;SDS011;69158;55.592;37.610;2023-04-15T03:57:12;8.98;;;1.70;;
79691;SDS011;69158;55.592;37.610;2023-04-15T03:59:57;5.47;;;1.45;;
79691;SDS011;69158;55.592;37.610;2023-04-15T04:02:46;7.75;;;1.70;;
79691;SDS011;69158;55.592;37.610;2023-04-15T04:05:32;7.22;;;1.33;;
79691;SDS011;69158;55.592;37.610;2023-04-15T04:08:21;6.05;;;1.60;;
79691;SDS011;69158;55.592;37.610;2023-04-15T04:11:07;6.65;;;1.83;;
79691;SDS011;69158;55.592;37.610;2023-04-15T04:13:53;7.05;;;1.95;;
79691;SDS011;69158;55.592;37.610;2023-04-15T04:16:39;6.00;;;1.60;;
79691;SDS011;69158;55.592;37.610;2023-04-15T04:19:26;7.97;;;1.73;;
79691;SDS011;69158;55.592;37.610;2023-04-15T04:22:12;8.50;;;1.60;;
79691;SDS011;69158;55.592;37.610;2023-04-15T04:24:58;6.45;;;3.13;;
79691;SDS011;69158;55.592;37.610;2023-04-15T04:27:44;6.05;;;1.63;;
79691;SDS011;69158;55.592;37.610;2023-04-15T04:30:31;7.63;;;1.52;;
79691;SDS011;69158;55.592;37.610;2023-04-15T04:33:20;6.00;;;2.05;;
79691;SDS011;69158;55.592;37.610;2023-04-15T04:36:06;6.88;;;2.38;;
79691;SDS011;69158;55.592;37.610;2023-04-15T04:38:52;6.57;;;1.70;;
79691;SDS011;69158;55.592;37.610;2023-04-15T04:41:41;12.07;;;2.03;;
79691;SDS011;69158;55.592;37.610;2023-04-15T04:44:27;5.90;;;1.50;;
79691;SDS011;69158;55.592;37.610;2023-04-15T04:47:14;7.43;;;1.65;;
79691;SDS011;69158;55.592;37.610;2023-04-15T04:50:00;5.63;;;1.70;;
79691;SDS011;69158;55.592;37.610;2023-04-15T04:52:46;5.35;;;1.55;;
79691;SDS011;69158;55.592;37.610;2023-04-15T04:55:35;6.18;;;1.55;;
79691;SDS011;69158;55.592;37.610;2023-04-15T04:58:21;6.63;;;1.75;;
79691;SDS011;69158;55.592;37.610;2023-04-15T05:01:07;10.13;;;1.40;;
79691;SDS011;69158;55.592;37.610;2023-04-15T05:03:53;8.75;;;1.60;;
79691;SDS011;69158;55.592;37.610;2023-04-15T05:06:39;5.90;;;1.67;;
79691;SDS011;69158;55.592;37.610;2023-04-15T05:09:26;7.47;;;1.55;;
79691;SDS011;69158;55.592;37.610;2023-04-15T05:12:12;7.57;;;1.38;;
79691;SDS011;69158;55.592;37.610;2023-04-15T05:14:59;5.90;;;1.73;;
79691;SDS011;69158;55.592;37.610;2023-04-15T05:17:45;7.30;;;1.60;;
79691;SDS011;69158;55.592;37.610;2023-04-15T05:20:31;5.32;;;1.60;;
79691;SDS011;69158;55.592;37.610;2023-04-15T05:23:17;5.35;;;1.40;;
79691;SDS011;69158;55.592;37.610;2023-04-15T05:26:03;5.10;;;1.48;;
79691;SDS011;69158;55.592;37.610;2023-04-15T05:28:49;7.13;;;1.50;;
79691;SDS011;69158;55.592;37.610;2023-04-15T05:31:35;5.88;;;1.40;;
79691;SDS011;69158;55.592;37.610;2023-04-15T05:34:21;5.63;;;1.20;;
79691;SDS011;69158;55.592;37.610;2023-04-15T05:37:07;8.10;;;1.60;;
79691;SDS011;69158;55.592;37.610;2023-04-15T05:39:53;9.70;;;2.15;;
79691;SDS011;69158;55.592;37.610;2023-04-15T05:42:39;7.43;;;1.50;;
79691;SDS011;69158;55.592;37.610;2023-04-15T05:45:25;6.50;;;1.40;;
79691;SDS011;69158;55.592;37.610;2023-04-15T05:48:11;7.50;;;1.50;;
79691;SDS011;69158;55.592;37.610;2023-04-15T05:50:57;7.03;;;1.40;;
79691;SDS011;69158;55.592;37.610;2023-04-15T05:53:43;9.18;;;2.15;;
79691;SDS011;69158;55.592;37.610;2023-04-15T05:56:30;6.90;;;2.47;;
79691;SDS011;69158;55.592;37.610;2023-04-15T05:59:16;5.97;;;1.55;;
79691;SDS011;69158;55.592;37.610;2023-04-15T06:02:02;6.30;;;1.75;;
79691;SDS011;69158;55.592;37.610;2023-04-15T06:04:48;5.93;;;1.65;;
79691;SDS011;69158;55.592;37.610;2023-04-15T06:07:34;5.95;;;1.85;;
79691;SDS011;69158;55.592;37.610;2023-04-15T06:10:23;5.20;;;1.73;;
79691;SDS011;69158;55.592;37.610;2023-04-15T06:13:09;7.25;;;1.80;;
79691;SDS011;69158;55.592;37.610;2023-04-15T06:15:55;6.85;;;1.60;;
79691;SDS011;69158;55.592;37.610;2023-04-15T06:18:41;5.47;;;1.92;;
79691;SDS011;69158;55.592;37.610;2023-04-15T06:21:27;8.20;;;2.10;;
79691;SDS011;69158;55.592;37.610;2023-04-15T06:24:14;8.30;;;2.03;;
79691;SDS011;69158;55.592;37.610;2023-04-15T06:27:00;8.77;;;2.22;;
79691;SDS011;69158;55.592;37.610;2023-04-15T06:29:46;10.38;;;2.33;;
79691;SDS011;69158;55.592;37.610;2023-04-15T06:32:32;7.68;;;2.67;;
79691;SDS011;69158;55.592;37.610;2023-04-15T06:35:18;13.35;;;1.98;;
79691;SDS011;69158;55.592;37.610;2023-04-15T06:38:05;8.13;;;2.70;;
79691;SDS011;69158;55.592;37.610;2023-04-15T06:40:51;7.60;;;2.08;;
79691;SDS011;69158;55.592;37.610;2023-04-15T06:43:37;8.23;;;2.20;;
79691;SDS011;69158;55.592;37.610;2023-04-15T06:46:24;8.35;;;2.85;;
79691;SDS011;69158;55.592;37.610;2023-04-15T06:49:10;7.10;;;2.10;;
79691;SDS011;69158;55.592;37.610;2023-04-15T06:51:56;6.20;;;2.10;;
79691;SDS011;69158;55.592;37.610;2023-04-15T06:54:45;7.32;;;1.90;;
79691;SDS011;69158;55.592;37.610;2023-04-15T06:57:31;6.50;;;1.98;;
79691;SDS011;69158;55.592;37.610;2023-04-15T07:00:17;7.10;;;2.53;;
79691;SDS011;69158;55.592;37.610;2023-04-15T07:03:03;10.35;;;1.77;;
79691;SDS011;69158;55.592;37.610;2023-04-15T07:05:49;6.22;;;1.65;;
79691;SDS011;69158;55.592;37.610;2023-04-15T07:08:35;9.88;;;2.17;;
79691;SDS011;69158;55.592;37.610;2023-04-15T07:11:21;8.00;;;1.98;;
79691;SDS011;69158;55.592;37.610;2023-04-15T07:14:07;8.70;;;2.47;;
79691;SDS011;69158;55.592;37.610;2023-04-15T07:16:53;7.13;;;2.30;;
79691;SDS011;69158;55.592;37.610;2023-04-15T07:19:39;7.30;;;2.22;;
79691;SDS011;69158;55.592;37.610;2023-04-15T07:22:25;7.80;;;2.28;;
79691;SDS011;69158;55.592;37.610;2023-04-15T07:25:11;8.38;;;2.72;;
79691;SDS011;69158;55.592;37.610;2023-04-15T07:27:57;7.78;;;2.30;;
79691;SDS011;69158;55.592;37.610;2023-04-15T07:30:43;11.35;;;2.40;;
79691;SDS011;69158;55.592;37.610;2023-04-15T07:33:29;10.43;;;2.35;;
79691;SDS011;69158;55.592;37.610;2023-04-15T07:36:15;6.47;;;2.05;;
79691;SDS011;69158;55.592;37.610;2023-04-15T07:39:01;7.15;;;2.03;;
79691;SDS011;69158;55.592;37.610;2023-04-15T07:41:48;6.30;;;2.28;;
79691;SDS011;69158;55.592;37.610;2023-04-15T07:44:34;6.22;;;2.50;;
79691;SDS011;69158;55.592;37.610;2023-04-15T07:47:20;9.38;;;2.47;;
79691;SDS011;69158;55.592;37.610;2023-04-15T07:50:08;8.15;;;2.55;;
79691;SDS011;69158;55.592;37.610;2023-04-15T07:52:57;6.55;;;2.38;;
79691;SDS011;69158;55.592;37.610;2023-04-15T07:55:43;7.38;;;2.92;;
79691;SDS011;69158;55.592;37.610;2023-04-15T07:58:31;14.65;;;2.20;;
79691;SDS011;69158;55.592;37.610;2023-04-15T08:01:17;9.35;;;2.60;;
79691;SDS011;69158;55.592;37.610;2023-04-15T08:04:03;8.82;;;2.15;;
79691;SDS011;69158;55.592;37.610;2023-04-15T08:06:50;7.75;;;2.20;;
79691;SDS011;69158;55.592;37.610;2023-04-15T08:09:37;9.13;;;2.53;;
79691;SDS011;69158;55.592;37.610;2023-04-15T08:12:22;5.50;;;1.88;;
79691;SDS011;69158;55.592;37.610;2023-04-15T08:15:09;8.93;;;2.58;;
79691;SDS011;69158;55.592;37.610;2023-04-15T08:17:55;7.30;;;2.05;;
79691;SDS011;69158;55.592;37.610;2023-04-15T08:20:41;6.38;;;2.00;;
79691;SDS011;69158;55.592;37.610;2023-04-15T08:23:30;8.68;;;2.22;;
79691;SDS011;69158;55.592;37.610;2023-04-15T08:26:18;14.18;;;2.90;;
79691;SDS011;69158;55.592;37.610;2023-04-15T08:29:04;18.58;;;3.05;;
79691;SDS011;69158;55.592;37.610;2023-04-15T08:31:50;7.25;;;2.75;;
79691;SDS011;69158;55.592;37.610;2023-04-15T08:34:38;11.88;;;2.58;;
79691;SDS011;69158;55.592;37.610;2023-04-15T08:37:24;8.38;;;3.22;;
79691;SDS011;69158;55.592;37.610;2023-04-15T08:40:11;8.23;;;2.03;;
79691;SDS011;69158;55.592;37.610;2023-04-15T08:42:57;5.63;;;2.25;;
79691;SDS011;69158;55.592;37.610;2023-04-15T08:45:45;6.65;;;2.65;;
79691;SDS011;69158;55.592;37.610;2023-04-15T08:48:34;8.90;;;2.33;;
79691;SDS011;69158;55.592;37.610;2023-04-15T08:51:25;6.65;;;2.30;;
79691;SDS011;69158;55.592;37.610;2023-04-15T08:54:12;8.07;;;2.42;;
79691;SDS011;69158;55.592;37.610;2023-04-15T08:56:58;8.57;;;2.70;;
79691;SDS011;69158;55.592;37.610;2023-04-15T08:59:44;6.57;;;2.42;;
79691;SDS011;69158;55.592;37.610;2023-04-15T09:02:31;6.72;;;2.65;;
79691;SDS011;69158;55.592;37.610;2023-04-15T09:05:17;9.63;;;2.58;;
79691;SDS011;69158;55.592;37.610;2023-04-15T09:08:03;8.35;;;2.60;;
79691;SDS011;69158;55.592;37.610;2023-04-15T09:10:50;12.60;;;2.83;;
79691;SDS011;69158;55.592;37.610;2023-04-15T09:13:36;9.88;;;2.53;;
79691;SDS011;69158;55.592;37.610;2023-04-15T09:16:22;8.98;;;2.63;;
79691;SDS011;69158;55.592;37.610;2023-04-15T09:19:21;6.53;;;2.50;;
79691;SDS011;69158;55.592;37.610;2023-04-15T09:22:08;6.82;;;2.42;;
79691;SDS011;69158;55.592;37.610;2023-04-15T09:24:54;7.22;;;2.25;;
79691;SDS011;69158;55.592;37.610;2023-04-15T09:27:59;7.63;;;2.67;;
79691;SDS011;69158;55.592;37.610;2023-04-15T09:30:46;10.82;;;2.75;;
79691;SDS011;69158;55.592;37.610;2023-04-15T09:33:40;7.95;;;3.40;;
79691;SDS011;69158;55.592;37.610;2023-04-15T09:39:44;9.60;;;3.42;;
79691;SDS011;69158;55.592;37.610;2023-04-15T09:42:34;17.63;;;3.53;;
79691;SDS011;69158;55.592;37.610;2023-04-15T09:45:23;7.90;;;2.50;;
79691;SDS011;69158;55.592;37.610;2023-04-15T09:48:16;7.97;;;3.05;;
79691;SDS011;69158;55.592;37.610;2023-04-15T09:51:05;11.30;;;3.13;;
79691;SDS011;69158;55.592;37.610;2023-04-15T09:53:53;10.32;;;3.20;;
79691;SDS011;69158;55.592;37.610;2023-04-15T09:56:41;12.70;;;3.03;;
79691;SDS011;69158;55.592;37.610;2023-04-15T09:59:28;8.02;;;3.00;;
79691;SDS011;69158;55.592;37.610;2023-04-15T10:02:14;10.35;;;3.33;;
79691;SDS011;69158;55.592;37.610;2023-04-15T10:05:03;8.43;;;3.60;;
79691;SDS011;69158;55.592;37.610;2023-04-15T10:07:51;10.15;;;3.55;;
79691;SDS011;69158;55.592;37.610;2023-04-15T10:10:43;8.05;;;3.10;;
79691;SDS011;69158;55.592;37.610;2023-04-15T10:13:31;10.35;;;3.55;;
79691;SDS011;69158;55.592;37.610;2023-04-15T10:16:19;21.63;;;3.70;;
79691;SDS011;69158;55.592;37.610;2023-04-15T10:19:06;11.90;;;3.05;;
79691;SDS011;69158;55.592;37.610;2023-04-15T10:21:53;9.02;;;3.22;;
79691;SDS011;69158;55.592;37.610;2023-04-15T10:24:40;9.07;;;3.25;;
79691;SDS011;69158;55.592;37.610;2023-04-15T10:27:29;8.82;;;2.80;;
79691;SDS011;69158;55.592;37.610;2023-04-15T10:30:16;10.68;;;3.13;;
79691;SDS011;69158;55.592;37.610;2023-04-15T10:33:03;9.57;;;3.13;;
79691;SDS011;69158;55.592;37.610;2023-04-15T10:35:50;10.52;;;2.97;;
79691;SDS011;69158;55.592;37.610;2023-04-15T10:38:43;10.18;;;3.58;;
79691;SDS011;69158;55.592;37.610;2023-04-15T10:41:36;8.90;;;3.05;;
79691;SDS011;69158;55.592;37.610;2023-04-15T10:44:22;9.40;;;3.10;;
79691;SDS011;69158;55.592;37.610;2023-04-15T10:47:12;7.20;;;3.20;;
79691;SDS011;69158;55.592;37.610;2023-04-15T10:50:00;10.93;;;3.55;;
79691;SDS011;69158;55.592;37.610;2023-04-15T10:52:49;8.27;;;2.80;;
79691;SDS011;69158;55.592;37.610;2023-04-15T10:55:36;12.88;;;3.00;;
79691;SDS011;69158;55.592;37.610;2023-04-15T10:58:23;11.07;;;2.88;;
79691;SDS011;69158;55.592;37.610;2023-04-15T11:01:10;7.25;;;3.70;;
79691;SDS011;69158;55.592;37.610;2023-04-15T11:03:58;10.45;;;2.70;;
79691;SDS011;69158;55.592;37.610;2023-04-15T11:06:44;7.25;;;2.60;;
79691;SDS011;69158;55.592;37.610;2023-04-15T11:09:31;8.95;;;3.40;;
79691;SDS011;69158;55.592;37.610;2023-04-15T11:12:18;8.10;;;2.67;;
79691;SDS011;69158;55.592;37.610;2023-04-15T11:15:31;9.70;;;2.67;;
79691;SDS011;69158;55.592;37.610;2023-04-15T11:18:29;9.98;;;2.97;;
79691;SDS011;69158;55.592;37.610;2023-04-15T11:21:17;7.75;;;3.17;;
79691;SDS011;69158;55.592;37.610;2023-04-15T11:24:04;11.48;;;2.63;;
79691;SDS011;69158;55.592;37.610;2023-04-15T11:26:55;10.02;;;3.40;;
79691;SDS011;69158;55.592;37.610;2023-04-15T11:29:43;10.73;;;4.18;;
79691;SDS011;69158;55.592;37.610;2023-04-15T11:32:29;8.85;;;3.35;;
79691;SDS011;69158;55.592;37.610;2023-04-15T11:35:15;11.75;;;5.45;;
79691;SDS011;69158;55.592;37.610;2023-04-15T11:38:03;6.93;;;2.67;;
79691;SDS011;69158;55.592;37.610;2023-04-15T11:40:50;9.88;;;2.65;;
79691;SDS011;69158;55.592;37.610;2023-04-15T11:43:37;7.90;;;2.90;;
79691;SDS011;69158;55.592;37.610;2023-04-15T11:46:32;7.32;;;2.83;;
79691;SDS011;69158;55.592;37.610;2023-04-15T11:49:25;7.68;;;2.90;;
79691;SDS011;69158;55.592;37.610;2023-04-15T11:52:12;7.18;;;2.47;;
79691;SDS011;69158;55.592;37.610;2023-04-15T11:55:05;7.15;;;2.40;;
79691;SDS011;69158;55.592;37.610;2023-04-15T12:00:58;10.57;;;2.90;;
79691;SDS011;69158;55.592;37.610;2023-04-15T12:03:45;8.77;;;2.88;;
79691;SDS011;69158;55.592;37.610;2023-04-15T12:06:32;7.35;;;3.25;;
79691;SDS011;69158;55.592;37.610;2023-04-15T12:09:23;8.90;;;2.95;;
79691;SDS011;69158;55.592;37.610;2023-04-15T12:12:09;12.02;;;2.72;;
79691;SDS011;69158;55.592;37.610;2023-04-15T12:14:56;8.85;;;3.08;;
79691;SDS011;69158;55.592;37.610;2023-04-15T12:17:43;8.35;;;2.78;;
79691;SDS011;69158;55.592;37.610;2023-04-15T12:20:29;12.10;;;2.60;;
79691;SDS011;69158;55.592;37.610;2023-04-15T12:23:18;8.25;;;2.50;;
79691;SDS011;69158;55.592;37.610;2023-04-15T12:26:05;9.30;;;2.63;;
79691;SDS011;69158;55.592;37.610;2023-04-15T12:28:55;10.82;;;2.80;;
79691;SDS011;69158;55.592;37.610;2023-04-15T12:31:51;7.30;;;2.72;;
79691;SDS011;69158;55.592;37.610;2023-04-15T12:34:40;10.50;;;2.70;;
79691;SDS011;69158;55.592;37.610;2023-04-15T12:37:37;8.15;;;2.75;;
79691;SDS011;69158;55.592;37.610;2023-04-15T12:40:24;7.85;;;3.15;;
79691;SDS011;69158;55.592;37.610;2023-04-15T12:43:10;8.65;;;2.35;;
79691;SDS011;69158;55.592;37.610;2023-04-15T12:45:56;6.72;;;3.28;;
79691;SDS011;69158;55.592;37.610;2023-04-15T12:48:42;10.25;;;2.90;;
79691;SDS011;69158;55.592;37.610;2023-04-15T12:51:29;10.88;;;2.92;;
79691;SDS011;69158;55.592;37.610;2023-04-15T12:54:16;11.35;;;2.88;;
79691;SDS011;69158;55.592;37.610;2023-04-15T12:57:03;10.50;;;2.85;;
79691;SDS011;69158;55.592;37.610;2023-04-15T12:59:49;9.57;;;3.10;;
79691;SDS011;69158;55.592;37.610;2023-04-15T13:02:35;10.25;;;3.58;;
79691;SDS011;69158;55.592;37.610;2023-04-15T13:05:22;6.30;;;2.30;;
79691;SDS011;69158;55.592;37.610;2023-04-15T13:08:09;9.55;;;2.72;;
79691;SDS011;69158;55.592;37.610;2023-04-15T13:10:55;10.50;;;2.50;;
79691;SDS011;69158;55.592;37.610;2023-04-15T13:13:42;6.07;;;1.88;;
79691;SDS011;69158;55.592;37.610;2023-04-15T13:16:30;6.55;;;2.10;;
79691;SDS011;69158;55.592;37.610;2023-04-15T13:19:20;6.63;;;2.35;;
79691;SDS011;69158;55.592;37.610;2023-04-15T13:22:09;9.20;;;2.20;;
79691;SDS011;69158;55.592;37.610;2023-04-15T13:24:56;6.10;;;1.80;;
79691;SDS011;69158;55.592;37.610;2023-04-15T13:27:42;8.18;;;2.33;;
79691;SDS011;69158;55.592;37.610;2023-04-15T13:30:28;8.60;;;2.10;;
79691;SDS011;69158;55.592;37.610;2023-04-15T13:33:15;9.95;;;2.20;;
79691;SDS011;69158;55.592;37.610;2023-04-15T13:36:02;9.15;;;2.03;;
79691;SDS011;69158;55.592;37.610;2023-04-15T13:38:48;8.65;;;2.90;;
79691;SDS011;69158;55.592;37.610;2023-04-15T13:41:34;10.32;;;3.58;;
79691;SDS011;69158;55.592;37.610;2023-04-15T13:44:21;7.97;;;2.75;;
79691;SDS011;69158;55.592;37.610;2023-04-15T13:47:08;10.45;;;2.80;;
79691;SDS011;69158;55.592;37.610;2023-04-15T13:49:54;7.03;;;2.40;;
79691;SDS011;69158;55.592;37.610;2023-04-15T13:52:41;8.50;;;2.35;;
79691;SDS011;69158;55.592;37.610;2023-04-15T13:55:27;8.38;;;2.63;;
79691;SDS011;69158;55.592;37.610;2023-04-15T13:58:15;7.68;;;2.60;;
79691;SDS011;69158;55.592;37.610;2023-04-15T14:01:01;9.07;;;2.20;;
79691;SDS011;69158;55.592;37.610;2023-04-15T14:03:48;8.15;;;2.35;;
79691;SDS011;69158;55.592;37.610;2023-04-15T14:06:34;7.25;;;2.03;;
79691;SDS011;69158;55.592;37.610;2023-04-15T14:09:20;7.00;;;2.10;;
79691;SDS011;69158;55.592;37.610;2023-04-15T14:12:08;9.15;;;2.38;;
79691;SDS011;69158;55.592;37.610;2023-04-15T14:14:55;9.20;;;2.00;;
79691;SDS011;69158;55.592;37.610;2023-04-15T14:17:41;8.68;;;2.17;;
79691;SDS011;69158;55.592;37.610;2023-04-15T14:20:28;7.28;;;2.05;;
79691;SDS011;69158;55.592;37.610;2023-04-15T14:23:14;8.07;;;2.50;;
79691;SDS011;69158;55.592;37.610;2023-04-15T14:26:00;6.85;;;2.20;;
79691;SDS011;69158;55.592;37.610;2023-04-15T14:28:46;10.77;;;2.80;;
79691;SDS011;69158;55.592;37.610;2023-04-15T14:31:33;8.98;;;2.03;;
79691;SDS011;69158;55.592;37.610;2023-04-15T14:34:19;7.82;;;2.10;;
79691;SDS011;69158;55.592;37.610;2023-04-15T14:37:09;9.85;;;2.10;;
79691;SDS011;69158;55.592;37.610;2023-04-15T14:39:55;8.05;;;2.10;;
79691;SDS011;69158;55.592;37.610;2023-04-15T14:42:41;7.10;;;2.13;;
79691;SDS011;69158;55.592;37.610;2023-04-15T14:45:29;7.43;;;1.88;;
79691;SDS011;69158;55.592;37.610;2023-04-15T14:48:15;8.00;;;2.40;;
79691;SDS011;69158;55.592;37.610;2023-04-15T14:51:01;9.27;;;2.53;;
79691;SDS011;69158;55.592;37.610;2023-04-15T14:53:47;9.60;;;2.53;;
79691;SDS011;69158;55.592;37.610;2023-04-15T14:56:33;9.55;;;2.50;;
79691;SDS011;69158;55.592;37.610;2023-04-15T14:59:20;8.10;;;2.50;;
79691;SDS011;69158;55.592;37.610;2023-04-15T15:02:06;10.57;;;2.83;;
79691;SDS011;69158;55.592;37.610;2023-04-15T15:04:52;9.57;;;2.03;;
79691;SDS011;69158;55.592;37.610;2023-04-15T15:07:38;8.85;;;2.30;;
79691;SDS011;69158;55.592;37.610;2023-04-15T15:10:27;7.55;;;2.00;;
79691;SDS011;69158;55.592;37.610;2023-04-15T15:13:13;9.50;;;2.30;;
79691;SDS011;69158;55.592;37.610;2023-04-15T15:16:00;12.52;;;3.35;;
79691;SDS011;69158;55.592;37.610;2023-04-15T15:18:46;9.32;;;2.40;;
79691;SDS011;69158;55.592;37.610;2023-04-15T15:21:32;10.48;;;2.35;;
79691;SDS011;69158;55.592;37.610;2023-04-15T15:24:18;9.13;;;2.78;;
79691;SDS011;69158;55.592;37.610;2023-04-15T15:27:04;9.20;;;2.67;;
79691;SDS011;69158;55.592;37.610;2023-04-15T15:29:50;8.57;;;2.70;;
79691;SDS011;69158;55.592;37.610;2023-04-15T15:32:39;9.57;;;2.95;;
79691;SDS011;69158;55.592;37.610;2023-04-15T15:35:28;11.60;;;2.95;;
79691;SDS011;69158;55.592;37.610;2023-04-15T15:38:14;8.82;;;2.42;;
79691;SDS011;69158;55.592;37.610;2023-04-15T15:41:00;9.55;;;2.60;;
79691;SDS011;69158;55.592;37.610;2023-04-15T15:43:46;9.88;;;2.25;;
79691;SDS011;69158;55.592;37.610;2023-04-15T15:46:32;9.00;;;2.53;;
79691;SDS011;69158;55.592;37.610;2023-04-15T15:49:18;6.97;;;2.03;;
79691;SDS011;69158;55.592;37.610;2023-04-15T15:52:04;7.85;;;2.67;;
79691;SDS011;69158;55.592;37.610;2023-04-15T15:54:50;11.07;;;2.55;;
79691;SDS011;69158;55.592;37.610;2023-04-15T15:57:36;8.82;;;2.58;;
79691;SDS011;69158;55.592;37.610;2023-04-15T16:00:22;10.35;;;2.17;;
79691;SDS011;69158;55.592;37.610;2023-04-15T16:03:08;15.75;;;2.45;;
79691;SDS011;69158;55.592;37.610;2023-04-15T16:05:54;9.90;;;2.40;;
79691;SDS011;69158;55.592;37.610;2023-04-15T16:08:40;17.15;;;2.72;;
79691;SDS011;69158;55.592;37.610;2023-04-15T16:11:26;9.38;;;3.03;;
79691;SDS011;69158;55.592;37.610;2023-04-15T16:14:13;14.07;;;2.55;;
79691;SDS011;69158;55.592;37.610;2023-04-15T16:17:00;8.15;;;2.50;;
79691;SDS011;69158;55.592;37.610;2023-04-15T16:19:45;11.32;;;3.35;;
79691;SDS011;69158;55.592;37.610;2023-04-15T16:22:34;11.75;;;3.45;;
79691;SDS011;69158;55.592;37.610;2023-04-15T16:25:20;10.30;;;2.72;;
79691;SDS011;69158;55.592;37.610;2023-04-15T16:28:06;9.23;;;3.35;;
79691;SDS011;69158;55.592;37.610;2023-04-15T16:30:53;8.20;;;2.72;;
79691;SDS011;69158;55.592;37.610;2023-04-15T16:33:40;10.43;;;3.00;;
79691;SDS011;69158;55.592;37.610;2023-04-15T16:36:26;12.88;;;4.20;;
79691;SDS011;69158;55.592;37.610;2023-04-15T16:39:13;16.42;;;4.45;;